Time;durP1;ratioP1;P1;durP2;ratioP2;P2;SDS_P1;SDS_P2;PMS_P1;PMS_P2;Temp;Humidity;BMP_temperature;BMP_pressure;BME280_temperature;BME280_humidity;BME280_pressure;Samples;Min_cycle;Max_cycle;Signal;HPM_P1;HPM_P2
2022/06/21 00:01:20;;;;;;;6.80;2.08;;;13.00;99.90;;;;;;5096674;28;20036;-81
2022/06/21 00:03:48;;;;;;;9.10;2.45;;;12.90;99.90;;;;;;5096689;28;20522;-80
2022/06/21 00:06:18;;;;;;;7.28;2.47;;;12.90;99.90;;;;;;5097114;28;20372;-81
2022/06/21 00:08:44;;;;;;;9.13;2.47;;;13.00;99.90;;;;;;5093816;28;20066;-80
2022/06/21 00:11:36;;;;;;;7.45;2.20;;;12.90;99.90;;;;;;5097058;28;20035;-81
2022/06/21 00:14:02;;;;;;;14.07;3.20;;;12.90;99.90;;;;;;5073443;28;20449;-80
2022/06/21 00:16:30;;;;;;;8.20;2.30;;;12.90;99.90;;;;;;5096148;28;20035;-80
2022/06/21 00:18:56;;;;;;;7.40;2.65;;;12.90;99.90;;;;;;5096124;28;20044;-82
2022/06/21 00:21:25;;;;;;;6.97;2.40;;;12.90;99.90;;;;;;5096725;28;20495;-80
2022/06/21 00:23:52;;;;;;;8.02;2.17;;;12.90;99.90;;;;;;5127889;27;20069;-81
2022/06/21 00:26:20;;;;;;;8.65;2.60;;;12.80;99.90;;;;;;5079124;28;20051;-80
2022/06/21 00:28:46;;;;;;;7.97;2.50;;;12.80;99.90;;;;;;5095374;28;20061;-81
2022/06/21 00:31:22;;;;;;;5.43;2.45;;;12.80;99.90;;;;;;5096241;28;20118;-81
2022/06/21 00:33:48;;;;;;;8.70;2.92;;;12.70;99.90;;;;;;5095844;28;20039;-81
2022/06/21 00:36:35;;;;;;;4.50;2.28;;;12.80;99.90;;;;;;5095899;28;20036;-81
2022/06/21 00:39:03;;;;;;;8.48;2.00;;;12.70;99.90;;;;;;5076554;28;20039;-81
2022/06/21 00:41:53;;;;;;;6.80;2.70;;;12.70;99.90;;;;;;5079075;28;20070;-79
2022/06/21 00:44:27;;;;;;;8.38;2.60;;;12.80;99.90;;;;;;5094191;28;20120;-80
2022/06/21 00:47:02;;;;;;;10.68;3.42;;;12.70;99.90;;;;;;5093035;28;20039;-80
2022/06/21 00:49:33;;;;;;;6.43;2.40;;;12.70;99.90;;;;;;5078747;28;20044;-81
2022/06/21 00:52:26;;;;;;;10.00;2.70;;;12.60;99.90;;;;;;5093358;28;20039;-81
2022/06/21 00:54:51;;;;;;;7.10;2.40;;;12.60;99.90;;;;;;5093034;28;20032;-79
2022/06/21 00:57:23;;;;;;;7.90;2.87;;;12.60;99.90;;;;;;5095581;28;20463;-80
2022/06/21 00:59:50;;;;;;;7.65;2.78;;;12.60;99.90;;;;;;5086297;28;20067;-80
2022/06/21 01:02:23;;;;;;;7.68;2.90;;;12.60;99.90;;;;;;5078349;28;20065;-81
2022/06/21 01:04:52;;;;;;;7.47;2.67;;;12.50;99.90;;;;;;5095307;28;20078;-81
2022/06/21 01:07:18;;;;;;;7.65;2.78;;;12.50;99.90;;;;;;5110164;28;20094;-80
2022/06/21 01:10:14;;;;;;;6.68;2.60;;;12.50;99.90;;;;;;5094730;28;20063;-81
2022/06/21 01:12:56;;;;;;;5.65;2.67;;;12.50;99.90;;;;;;5081059;28;20122;-80
2022/06/21 01:15:26;;;;;;;6.43;2.30;;;12.40;99.90;;;;;;5095079;28;20079;-80
2022/06/21 01:17:59;;;;;;;6.03;2.58;;;12.40;99.90;;;;;;5094701;28;20093;-79
2022/06/21 01:20:27;;;;;;;9.55;2.30;;;12.30;99.90;;;;;;5095263;28;20051;-81
2022/06/21 01:23:03;;;;;;;10.75;3.00;;;12.20;99.90;;;;;;5078044;28;20058;-80
2022/06/21 01:25:41;;;;;;;9.32;2.28;;;12.20;99.90;;;;;;5078339;28;20070;-81
2022/06/21 01:28:08;;;;;;;3.30;2.08;;;12.10;99.90;;;;;;5077721;28;20123;-80
2022/06/21 01:30:34;;;;;;;3.08;1.80;;;12.10;99.90;;;;;;5094612;28;20101;-80
2022/06/21 01:33:01;;;;;;;;;;;11.90;99.90;;;;;;5078408;28;20047;-80
2022/06/21 01:35:36;;;;;;;5.53;2.03;;;11.90;99.90;;;;;;5128158;27;19984;-80
2022/06/21 01:38:05;;;;;;;8.20;2.05;;;11.90;99.90;;;;;;5094602;28;20067;-81
2022/06/21 01:40:35;;;;;;;9.77;2.60;;;11.90;99.90;;;;;;5094706;28;20046;-80
2022/06/21 01:43:08;;;;;;;9.52;2.40;;;11.90;99.90;;;;;;5094432;28;20050;-79
2022/06/21 01:45:48;;;;;;;3.85;2.20;;;11.90;99.90;;;;;;5077983;28;20032;-80
2022/06/21 01:48:29;;;;;;;5.35;2.30;;;12.00;99.90;;;;;;5094116;28;20039;-81
2022/06/21 01:51:01;;;;;;;4.43;2.30;;;11.90;99.90;;;;;;5092797;28;20442;-81
2022/06/21 01:53:27;;;;;;;5.18;2.28;;;11.90;99.90;;;;;;5091914;28;20028;-79
2022/06/21 01:56:05;;;;;;;5.43;2.33;;;11.90;99.90;;;;;;5093967;28;20035;-80
2022/06/21 01:58:35;;;;;;;4.65;2.15;;;12.00;99.90;;;;;;5092191;28;20043;-80
2022/06/21 02:01:30;;;;;;;4.35;2.53;;;12.00;99.90;;;;;;5077527;28;20043;-80
2022/06/21 02:04:01;;;;;;;7.88;3.40;;;11.90;99.90;;;;;;5070950;28;20032;-81
2022/06/21 02:06:31;;;;;;;7.53;2.80;;;11.90;99.90;;;;;;5103125;28;20456;-80
2022/06/21 02:09:17;;;;;;;7.72;2.95;;;11.90;99.90;;;;;;5103774;28;20058;-81
2022/06/21 02:11:47;;;;;;;7.55;2.80;;;11.90;99.90;;;;;;5094281;28;20034;-79
2022/06/21 02:14:29;;;;;;;6.00;3.08;;;11.80;99.90;;;;;;5094196;28;20039;-80
2022/06/21 02:17:06;;;;;;;6.72;3.00;;;11.80;99.90;;;;;;5094128;28;20395;-81
2022/06/21 02:19:38;;;;;;;;;;;11.70;99.90;;;;;;5078024;28;20031;-81
2022/06/21 02:22:05;;;;;;;5.43;2.92;;;11.60;99.90;;;;;;5093786;28;20436;-80
2022/06/21 02:24:31;;;;;;;5.40;2.33;;;11.50;99.90;;;;;;5094196;28;20110;-80
2022/06/21 02:26:59;;;;;;;4.05;2.35;;;11.50;99.90;;;;;;5091222;28;20035;-81
2022/06/21 02:29:26;;;;;;;4.25;2.25;;;11.40;99.90;;;;;;5094183;28;20480;-81
2022/06/21 02:31:52;;;;;;;5.50;2.08;;;11.30;99.90;;;;;;5077159;28;20387;-81
2022/06/21 02:34:22;;;;;;;3.17;2.10;;;11.30;99.90;;;;;;5093933;28;20051;-81
2022/06/21 02:36:55;;;;;;;6.22;2.92;;;11.20;99.90;;;;;;5076397;28;20075;-81
2022/06/21 02:39:24;;;;;;;6.30;2.47;;;11.20;99.90;;;;;;5093885;28;20422;-81
2022/06/21 02:41:55;;;;;;;4.78;2.70;;;11.20;99.90;;;;;;5093633;28;20088;-81
2022/06/21 02:44:50;;;;;;;3.65;2.20;;;11.20;99.90;;;;;;5093668;28;20122;-80
2022/06/21 02:47:25;;;;;;;7.30;2.70;;;11.10;99.90;;;;;;5091337;28;20122;-81
2022/06/21 02:50:16;;;;;;;9.48;2.38;;;11.10;99.90;;;;;;5126229;28;20039;-80
2022/06/21 02:52:42;;;;;;;7.60;2.60;;;11.00;99.90;;;;;;5093779;28;20035;-81
2022/06/21 02:55:23;;;;;;;7.00;2.33;;;10.90;99.90;;;;;;5093586;28;20084;-80
2022/06/21 02:57:56;;;;;;;5.68;2.30;;;10.90;99.90;;;;;;5093419;28;20127;-81
2022/06/21 03:00:23;;;;;;;3.65;2.25;;;10.70;99.90;;;;;;5091639;28;20043;-80
2022/06/21 03:02:49;;;;;;;3.17;2.42;;;10.70;99.90;;;;;;5096676;28;20123;-80
2022/06/21 03:05:20;;;;;;;4.15;2.72;;;10.70;99.90;;;;;;5064082;28;20118;-81
2022/06/21 03:07:53;;;;;;;5.30;3.03;;;10.70;99.90;;;;;;5097151;28;20042;-79
2022/06/21 03:10:29;;;;;;;6.28;3.30;;;10.80;99.90;;;;;;5097187;28;20043;-79
2022/06/21 03:13:24;;;;;;;5.32;3.22;;;10.80;99.90;;;;;;5097009;28;20046;-81
2022/06/21 03:16:12;;;;;;;5.22;3.22;;;10.90;99.90;;;;;;5094059;28;20040;-80
2022/06/21 03:18:49;;;;;;;6.18;3.38;;;10.90;99.90;;;;;;5097324;28;20103;-80
2022/06/21 03:21:17;;;;;;;7.18;3.25;;;11.00;99.90;;;;;;5095975;28;20077;-80
2022/06/21 03:23:44;;;;;;;4.47;3.30;;;11.10;99.90;;;;;;5096971;28;20104;-81
2022/06/21 03:26:13;;;;;;;4.82;3.45;;;11.00;99.90;;;;;;5096748;28;20035;-80
2022/06/21 03:28:41;;;;;;;6.80;3.33;;;11.10;99.90;;;;;;5079696;28;20068;-79
2022/06/21 03:31:19;;;;;;;6.82;3.53;;;11.10;99.90;;;;;;5096145;28;20126;-80
2022/06/21 03:33:48;;;;;;;8.95;3.72;;;11.10;99.90;;;;;;5079441;28;20502;-81
2022/06/21 03:36:21;;;;;;;4.45;3.28;;;11.20;99.90;;;;;;5096120;28;20039;-81
2022/06/21 03:38:51;;;;;;;8.70;3.67;;;11.10;99.90;;;;;;5095673;28;20042;-80
2022/06/21 03:44:41;;;;;;;8.85;3.40;;;11.20;99.90;;;;;;5095506;28;20409;-80
2022/06/21 03:47:37;;;;;;;8.70;4.05;;;11.20;99.90;;;;;;5059050;28;20077;-81
2022/06/21 03:50:13;;;;;;;9.52;3.70;;;11.30;99.90;;;;;;5083345;28;20043;-81
2022/06/21 03:52:57;;;;;;;8.60;3.73;;;11.30;99.90;;;;;;5078951;28;20092;-81
2022/06/21 03:55:30;;;;;;;6.53;3.90;;;11.30;99.90;;;;;;5097101;28;20483;-80
2022/06/21 03:58:11;;;;;;;7.18;3.90;;;11.40;99.90;;;;;;5079885;28;20048;-81
2022/06/21 04:00:51;;;;;;;5.85;3.70;;;11.40;99.90;;;;;;5080018;28;20169;-81
2022/06/21 04:03:28;;;;;;;8.75;3.53;;;11.50;99.90;;;;;;5078802;28;20047;-81
2022/06/21 04:06:39;;;;;;;9.48;3.97;;;11.50;99.90;;;;;;5095452;28;20043;-82
2022/06/21 04:09:26;;;;;;;7.93;3.85;;;11.50;99.90;;;;;;5061537;28;20100;-81
2022/06/21 04:12:17;;;;;;;7.20;3.70;;;11.60;99.90;;;;;;5095085;28;20086;-80
2022/06/21 04:14:43;;;;;;;5.97;3.67;;;11.60;99.90;;;;;;5094788;28;20039;-80
2022/06/21 04:17:24;;;;;;;6.60;3.83;;;11.60;99.90;;;;;;5079379;28;20032;-81
2022/06/21 04:19:59;;;;;;;7.38;3.92;;;11.60;99.90;;;;;;5096596;28;20081;-81
2022/06/21 04:22:41;;;;;;;5.70;3.53;;;11.60;99.90;;;;;;5093728;28;20464;-80
2022/06/21 04:25:12;;;;;;;6.25;3.70;;;11.60;99.90;;;;;;5091739;28;20073;-80
2022/06/21 04:28:00;;;;;;;6.35;4.00;;;11.70;99.90;;;;;;5095987;28;20464;-80
2022/06/21 04:30:38;;;;;;;6.10;3.75;;;11.70;99.90;;;;;;5101326;28;20035;-81
2022/06/21 04:33:24;;;;;;;6.03;3.72;;;11.80;99.90;;;;;;5095504;28;20032;-82
2022/06/21 04:35:59;;;;;;;7.68;3.70;;;11.90;99.90;;;;;;5100283;28;20039;-80
2022/06/21 04:38:37;;;;;;;6.47;4.65;;;12.00;99.90;;;;;;5105173;28;20032;-82
2022/06/21 04:41:14;;;;;;;8.32;4.30;;;12.00;99.90;;;;;;5095693;28;20110;-81
2022/06/21 04:43:50;;;;;;;5.57;4.03;;;11.90;99.90;;;;;;5099879;28;20039;-81
2022/06/21 04:46:43;;;;;;;8.82;4.40;;;11.90;99.90;;;;;;5100739;28;20039;-81
2022/06/21 04:49:16;;;;;;;4.95;4.35;;;11.90;99.90;;;;;;5097981;28;20503;-82
2022/06/21 04:51:53;;;;;;;8.48;4.60;;;12.00;99.90;;;;;;5096510;28;20089;-83
2022/06/21 04:54:38;;;;;;;8.13;4.88;;;12.00;99.90;;;;;;5093867;28;20044;-81
2022/06/21 04:57:04;;;;;;;9.05;5.43;;;12.00;99.90;;;;;;5101555;28;20039;-81
2022/06/21 04:59:49;;;;;;;8.07;4.95;;;12.10;99.90;;;;;;5101297;28;20548;-81
2022/06/21 05:02:31;;;;;;;11.60;5.55;;;12.10;99.90;;;;;;5084264;28;20039;-81
2022/06/21 05:05:03;;;;;;;8.70;5.63;;;12.20;99.90;;;;;;5102529;28;20403;-81
2022/06/21 05:07:33;;;;;;;9.13;5.13;;;12.20;99.90;;;;;;5103811;28;20071;-82
2022/06/21 05:10:00;;;;;;;9.38;5.50;;;12.30;99.90;;;;;;5109721;28;20044;-81
2022/06/21 05:12:36;;;;;;;6.22;5.22;;;12.40;99.90;;;;;;5102124;28;20100;-81
2022/06/21 05:15:06;;;;;;;7.72;5.70;;;12.50;99.90;;;;;;5102105;28;20431;-81
2022/06/21 05:17:35;;;;;;;8.93;5.80;;;12.60;99.90;;;;;;5103715;28;20038;-81
2022/06/21 05:20:05;;;;;;;7.18;5.72;;;12.70;99.90;;;;;;5101597;28;20027;-80
2022/06/21 05:22:36;;;;;;;7.53;5.10;;;12.70;99.90;;;;;;5101440;28;20101;-81
2022/06/21 05:25:05;;;;;;;8.15;5.80;;;12.70;99.90;;;;;;5102330;28;20043;-81
2022/06/21 05:27:44;;;;;;;11.02;5.95;;;12.70;99.90;;;;;;5068773;28;20055;-80
2022/06/21 05:30:28;;;;;;;7.60;5.47;;;12.70;99.90;;;;;;5101533;28;20453;-80
2022/06/21 05:32:59;;;;;;;7.57;5.65;;;12.80;99.90;;;;;;5104136;28;20036;-81
2022/06/21 05:35:28;;;;;;;7.03;5.07;;;12.90;99.90;;;;;;5117558;28;20047;-81
2022/06/21 05:38:02;;;;;;;8.35;5.45;;;12.90;99.90;;;;;;5095864;28;20036;-82
2022/06/21 05:40:53;;;;;;;9.95;5.30;;;13.10;99.90;;;;;;5096049;28;20035;-80
2022/06/21 05:43:32;;;;;;;10.13;5.43;;;13.30;99.90;;;;;;5119019;28;20051;-81
2022/06/21 05:46:01;;;;;;;9.05;6.05;;;13.50;99.90;;;;;;5100978;28;20058;-80
2022/06/21 05:48:32;;;;;;;7.45;5.07;;;13.70;99.90;;;;;;5081883;28;20398;-81
2022/06/21 05:51:00;;;;;;;10.07;5.47;;;13.80;99.90;;;;;;5104356;28;20122;-80
2022/06/21 05:53:48;;;;;;;9.23;5.25;;;14.00;99.90;;;;;;5100206;28;20052;-81
2022/06/21 05:56:17;;;;;;;8.55;6.07;;;14.30;99.90;;;;;;5101593;28;20441;-81
2022/06/21 05:59:12;;;;;;;9.40;5.80;;;14.50;99.90;;;;;;5102207;28;20075;-81
2022/06/21 06:01:45;;;;;;;9.95;6.10;;;14.70;99.90;;;;;;5100163;28;20063;-80
2022/06/21 06:04:27;;;;;;;8.27;5.53;;;14.90;99.90;;;;;;5104122;28;20051;-81
2022/06/21 06:06:54;;;;;;;9.88;5.43;;;15.20;99.90;;;;;;5086257;28;20035;-81
2022/06/21 06:09:26;;;;;;;8.02;5.15;;;15.80;99.90;;;;;;5066844;28;20120;-81
2022/06/21 06:12:26;;;;;;;7.40;4.93;;;16.40;99.90;;;;;;5100447;28;20039;-81
2022/06/21 06:15:01;;;;;;;10.07;4.60;;;17.00;99.90;;;;;;5052460;28;20047;-81
2022/06/21 06:18:07;;;;;;;4.07;3.42;;;17.50;99.90;;;;;;5103343;28;20040;-82
2022/06/21 06:20:42;;;;;;;5.95;2.80;;;17.80;99.90;;;;;;5082070;28;20043;-80
2022/06/21 06:23:20;;;;;;;6.28;2.40;;;18.10;99.90;;;;;;5107641;28;20040;-80
2022/06/21 06:25:55;;;;;;;4.68;2.17;;;18.00;99.90;;;;;;5109562;28;20031;-82
2022/06/21 06:28:24;;;;;;;5.43;1.60;;;17.90;99.90;;;;;;5099989;28;20124;-81
2022/06/21 06:31:05;;;;;;;5.15;1.63;;;17.70;99.90;;;;;;5100852;28;20047;-82
2022/06/21 06:33:45;;;;;;;4.75;2.10;;;17.40;99.90;;;;;;5101199;28;20119;-80
2022/06/21 06:36:17;;;;;;;4.45;2.20;;;17.20;99.90;;;;;;5103455;28;20039;-81
2022/06/21 06:38:43;;;;;;;6.65;2.47;;;17.20;99.90;;;;;;5103820;28;20035;-81
2022/06/21 06:41:33;;;;;;;8.20;2.50;;;17.60;99.90;;;;;;5088533;28;20032;-81
2022/06/21 06:44:02;;;;;;;2.67;1.52;;;18.00;99.90;;;;;;5105423;28;20051;-81
2022/06/21 06:46:30;;;;;;;7.13;1.90;;;17.90;99.90;;;;;;5104989;28;20136;-82
2022/06/21 06:49:11;;;;;;;4.72;1.60;;;18.00;99.90;;;;;;5103829;28;20118;-80
2022/06/21 06:51:49;;;;;;;3.90;1.60;;;17.80;99.90;;;;;;5101907;28;20539;-81
2022/06/21 06:54:41;;;;;;;5.75;2.05;;;17.60;99.90;;;;;;5102669;28;20039;-80
2022/06/21 06:57:37;;;;;;;6.60;1.70;;;17.50;99.90;;;;;;5106271;28;20069;-81
2022/06/21 07:00:22;;;;;;;6.40;1.58;;;17.60;99.90;;;;;;5063342;28;20086;-81
2022/06/21 07:02:58;;;;;;;4.32;1.45;;;18.20;99.90;;;;;;5104023;28;20051;-81
2022/06/21 07:05:43;;;;;;;6.75;1.50;;;18.80;99.90;;;;;;5107387;28;20507;-81
2022/06/21 07:08:39;;;;;;;5.03;1.30;;;19.00;99.90;;;;;;5108656;28;20044;-79
2022/06/21 07:11:17;;;;;;;3.95;1.30;;;19.40;99.90;;;;;;5089518;28;20534;-81
2022/06/21 07:13:43;;;;;;;4.65;1.20;;;19.90;99.90;;;;;;5100242;28;20039;-81
2022/06/21 07:16:14;;;;;;;6.15;1.20;;;20.10;99.90;;;;;;5087137;28;20168;-80
2022/06/21 07:18:46;;;;;;;5.55;1.23;;;20.30;99.90;;;;;;5105146;28;20058;-82
2022/06/21 07:21:12;;;;;;;4.93;1.15;;;20.60;99.90;;;;;;5085157;28;20042;-81
2022/06/21 07:23:38;;;;;;;5.55;1.35;;;20.60;99.90;;;;;;5104961;28;20043;-81
2022/06/21 07:26:06;;;;;;;;;;;20.90;99.90;;;;;;5071426;28;20079;-81
2022/06/21 07:28:35;;;;;;;5.88;1.20;;;21.00;99.90;;;;;;5103974;28;19915;-81
2022/06/21 07:31:11;;;;;;;5.03;1.30;;;21.30;99.90;;;;;;5103716;28;20495;-82
2022/06/21 07:33:43;;;;;;;6.72;1.30;;;20.90;99.90;;;;;;5091462;28;20043;-82
2022/06/21 07:36:19;;;;;;;4.90;1.20;;;20.80;99.90;;;;;;5104876;28;20035;-81
2022/06/21 07:38:55;;;;;;;3.25;0.90;;;21.10;99.90;;;;;;5104853;28;20043;-81
2022/06/21 07:41:39;;;;;;;4.63;1.25;;;21.20;99.90;;;;;;5106185;28;20035;-81
2022/06/21 07:44:14;;;;;;;3.83;1.20;;;21.40;99.90;;;;;;5103316;28;20044;-81
2022/06/21 07:46:48;;;;;;;4.20;1.10;;;21.40;99.90;;;;;;5104599;28;20050;-82
2022/06/21 07:49:26;;;;;;;5.38;1.25;;;21.40;99.90;;;;;;5087175;28;20411;-81
2022/06/21 07:52:06;;;;;;;4.55;1.52;;;21.10;99.90;;;;;;5105368;28;20395;-80
2022/06/21 07:54:41;;;;;;;5.45;1.38;;;20.80;99.90;;;;;;5089046;28;20107;-81
2022/06/21 07:57:13;;;;;;;3.15;1.33;;;20.70;99.90;;;;;;5107789;28;20044;-81
2022/06/21 07:59:43;;;;;;;3.33;1.52;;;21.00;99.90;;;;;;5093019;28;20499;-82
2022/06/21 08:08:08;;;;;;;4.97;1.63;;;21.90;99.90;;;;;;5107511;28;20054;-81
2022/06/21 08:10:44;;;;;;;4.10;1.58;;;22.30;99.90;;;;;;5089580;28;20040;-81
2022/06/21 08:13:11;;;;;;;6.57;1.30;;;22.40;99.90;;;;;;5090037;28;20066;-81
2022/06/21 08:15:52;;;;;;;4.85;1.50;;;22.80;99.90;;;;;;5106197;28;20126;-80
2022/06/21 08:18:31;;;;;;;6.60;1.70;;;23.00;99.90;;;;;;5105188;28;20047;-81
2022/06/21 08:21:02;;;;;;;6.20;1.92;;;22.90;99.90;;;;;;5106109;28;20092;-81
2022/06/21 08:24:03;;;;;;;7.50;2.08;;;22.80;99.90;;;;;;5104423;28;20066;-81
2022/06/21 08:26:36;;;;;;;7.60;2.30;;;23.00;99.90;;;;;;5049156;28;20056;-81
2022/06/21 08:29:17;;;;;;;4.75;1.75;;;23.40;99.90;;;;;;5107167;28;20062;-81
2022/06/21 08:31:53;;;;;;;5.97;1.88;;;23.40;99.90;;;;;;5109322;28;20040;-80
2022/06/21 08:34:44;;;;;;;5.20;1.87;;;22.90;99.90;;;;;;5107963;28;20046;-81
2022/06/21 08:37:12;;;;;;;3.50;1.77;;;22.70;99.90;;;;;;5090021;28;20032;-81
2022/06/21 08:39:47;;;;;;;5.00;2.00;;;22.70;99.90;;;;;;5087980;28;20051;-81
2022/06/21 08:42:22;;;;;;;3.63;1.92;;;23.10;99.90;;;;;;5105192;28;20048;-81
2022/06/21 08:48:11;;;;;;;4.25;1.70;;;23.50;99.90;;;;;;5132534;27;20040;-81
2022/06/21 08:50:49;;;;;;;4.47;1.40;;;23.50;99.90;;;;;;5106030;28;20036;-81
2022/06/21 08:53:30;;;;;;;5.13;1.27;;;23.80;99.90;;;;;;5105321;28;20069;-81
2022/06/21 08:56:11;;;;;;;3.40;1.15;;;24.00;99.10;;;;;;5102300;28;20035;-82
2022/06/21 08:58:59;;;;;;;3.92;1.27;;;23.80;98.70;;;;;;5103593;28;20032;-82
2022/06/21 09:01:44;;;;;;;3.92;1.52;;;24.00;98.70;;;;;;5086699;28;20040;-81
2022/06/21 09:04:43;;;;;;;2.97;1.23;;;24.00;98.70;;;;;;5104367;28;20084;-82
2022/06/21 09:07:43;;;;;;;4.93;1.65;;;24.10;99.60;;;;;;5088721;28;20101;-81
2022/06/21 09:10:20;;;;;;;4.40;1.30;;;24.30;98.30;;;;;;5107657;28;20103;-80
2022/06/21 09:12:46;;;;;;;3.85;1.25;;;24.50;98.70;;;;;;5102778;28;20040;-81
2022/06/21 09:15:25;;;;;;;3.33;1.45;;;24.80;98.70;;;;;;5101567;28;20050;-80
2022/06/21 09:17:56;;;;;;;4.35;1.50;;;24.70;97.80;;;;;;5099335;28;20063;-81
2022/06/21 09:20:43;;;;;;;4.38;1.92;;;24.70;98.60;;;;;;5100814;28;20048;-81
2022/06/21 09:23:21;;;;;;;7.07;1.90;;;25.00;98.30;;;;;;5100643;28;20035;-82
2022/06/21 09:26:13;;;;;;;4.28;1.63;;;25.00;98.40;;;;;;5104733;28;20130;-80
2022/06/21 09:29:00;;;;;;;6.18;1.50;;;25.40;97.90;;;;;;5080869;28;20055;-81
2022/06/21 09:31:50;;;;;;;5.88;1.83;;;25.30;97.30;;;;;;5104509;28;20044;-82
2022/06/21 09:34:29;;;;;;;4.25;2.15;;;25.10;97.60;;;;;;5083193;28;20046;-80
2022/06/21 09:37:13;;;;;;;4.78;2.10;;;24.80;97.60;;;;;;5101124;28;20035;-80
2022/06/21 09:39:45;;;;;;;4.63;1.70;;;24.60;96.90;;;;;;5103773;28;20559;-80
2022/06/21 09:42:21;;;;;;;4.05;1.45;;;24.20;98.00;;;;;;5105145;28;20476;-81
2022/06/21 09:44:56;;;;;;;2.95;1.00;;;23.80;98.00;;;;;;5088602;28;20078;-81
2022/06/21 09:47:59;;;;;;;5.53;1.20;;;23.70;97.00;;;;;;5103838;28;20059;-81
2022/06/21 09:50:46;;;;;;;3.45;1.17;;;23.60;97.80;;;;;;5109193;28;20071;-81
2022/06/21 09:53:27;;;;;;;3.33;1.50;;;23.50;97.70;;;;;;5102332;28;20043;-81
2022/06/21 09:56:11;;;;;;;4.72;1.30;;;23.60;98.90;;;;;;5100174;28;20040;-81
2022/06/21 09:58:52;;;;;;;5.45;1.27;;;24.10;98.10;;;;;;5086993;28;20043;-82
2022/06/21 10:01:58;;;;;;;3.28;1.23;;;24.60;97.80;;;;;;5099352;28;20035;-81
2022/06/21 10:05:03;;;;;;;2.50;1.30;;;25.20;97.20;;;;;;5067460;28;20054;-81
2022/06/21 10:07:41;;;;;;;2.70;1.38;;;25.20;96.70;;;;;;5096290;28;20396;-81
2022/06/21 10:10:35;;;;;;;3.05;1.30;;;25.20;96.80;;;;;;5097733;28;20032;-80
2022/06/21 10:13:43;;;;;;;3.55;1.25;;;25.50;96.50;;;;;;5092852;28;20036;-80
2022/06/21 10:16:20;;;;;;;2.80;1.23;;;25.40;96.30;;;;;;5072270;28;20035;-80
2022/06/21 10:19:23;;;;;;;3.88;0.98;;;25.90;97.30;;;;;;5098220;28;20043;-81
2022/06/21 10:22:08;;;;;;;5.28;1.10;;;26.20;95.80;;;;;;5092065;28;20044;-80
2022/06/21 10:25:04;;;;;;;2.97;0.88;;;26.20;96.20;;;;;;5097880;28;20032;-81
2022/06/21 10:27:54;;;;;;;2.28;0.90;;;26.00;95.90;;;;;;5076640;28;20402;-80
2022/06/21 10:30:56;;;;;;;3.85;1.10;;;26.20;95.00;;;;;;5096296;28;20140;-83
2022/06/21 10:33:47;;;;;;;4.25;1.00;;;26.60;94.40;;;;;;5093109;28;20071;-81
2022/06/21 10:36:21;;;;;;;2.42;1.10;;;27.00;95.50;;;;;;5092893;28;20044;-81
2022/06/21 10:39:11;;;;;;;2.05;0.90;;;27.30;95.90;;;;;;5075787;28;20040;-81
2022/06/21 10:44:38;;;;;;;3.70;1.10;;;27.50;93.70;;;;;;5081375;28;20036;-81
2022/06/21 10:47:17;;;;;;;3.05;1.25;;;27.30;94.80;;;;;;5076151;28;20034;-81
2022/06/21 10:49:58;;;;;;;4.50;1.10;;;27.10;94.60;;;;;;5093070;28;20032;-81
2022/06/21 10:53:01;;;;;;;3.22;1.00;;;27.40;95.00;;;;;;5089384;28;20040;-81
2022/06/21 10:55:33;;;;;;;2.85;0.90;;;27.50;94.50;;;;;;5092864;28;20032;-81
2022/06/21 10:58:11;;;;;;;3.75;1.00;;;27.40;94.40;;;;;;5093019;28;20387;-81
2022/06/21 11:04:14;;;;;;;2.72;0.88;;;27.50;94.00;;;;;;5097373;28;20055;-80
2022/06/21 11:07:07;;;;;;;2.45;0.90;;;27.20;93.00;;;;;;5074071;28;20052;-81
2022/06/21 11:09:39;;;;;;;2.63;0.90;;;27.00;93.70;;;;;;5083589;28;20098;-81
2022/06/21 11:15:27;;;;;;;2.67;0.70;;;26.90;93.70;;;;;;5079099;28;20083;-81
2022/06/21 11:18:15;;;;;;;6.63;0.88;;;27.10;93.80;;;;;;5091958;28;20043;-80
2022/06/21 11:20:52;;;;;;;2.75;0.95;;;27.50;93.70;;;;;;5092362;28;20044;-81
2022/06/21 11:23:25;;;;;;;3.03;0.70;;;27.70;92.60;;;;;;5086235;28;20040;-80
2022/06/21 11:25:55;;;;;;;3.88;0.77;;;27.60;92.30;;;;;;5096865;28;20044;-80
2022/06/21 11:28:33;;;;;;;1.85;0.57;;;27.70;92.10;;;;;;5100525;28;20416;-80
2022/06/21 11:31:21;;;;;;;1.75;0.60;;;27.60;92.70;;;;;;5078160;28;20070;-81
2022/06/21 11:34:23;;;;;;;4.68;1.20;;;28.20;92.80;;;;;;5091266;28;20082;-81
2022/06/21 11:37:09;;;;;;;1.85;0.60;;;28.20;92.90;;;;;;5091321;28;20043;-80
2022/06/21 11:39:49;;;;;;;2.63;0.70;;;28.20;92.50;;;;;;5095650;28;20040;-80
2022/06/21 11:42:22;;;;;;;2.88;0.73;;;28.10;92.80;;;;;;5088642;28;20048;-80
2022/06/21 11:45:06;;;;;;;2.05;0.80;;;27.90;92.20;;;;;;5095743;28;20043;-80
2022/06/21 11:47:57;;;;;;;3.08;0.60;;;27.90;91.70;;;;;;5095706;28;20044;-79
2022/06/21 11:50:28;;;;;;;3.75;0.90;;;28.00;92.60;;;;;;5091604;28;20115;-80
2022/06/21 11:53:13;;;;;;;3.53;0.93;;;28.00;91.70;;;;;;5077907;28;20488;-80
2022/06/21 11:56:13;;;;;;;4.40;0.73;;;27.80;91.60;;;;;;5094763;28;20035;-80
2022/06/21 11:59:12;;;;;;;1.52;0.70;;;27.90;91.70;;;;;;5083031;28;20475;-80
2022/06/21 12:01:53;;;;;;;5.50;0.80;;;28.00;92.60;;;;;;5077373;28;20052;-80
2022/06/21 12:04:42;;;;;;;2.75;0.70;;;28.40;92.60;;;;;;5094742;28;20391;-80
2022/06/21 12:07:35;;;;;;;2.28;0.77;;;28.60;91.30;;;;;;5091765;28;20044;-80
2022/06/21 12:10:27;;;;;;;1.73;0.52;;;28.40;90.60;;;;;;5079566;28;20044;-81
2022/06/21 12:13:35;;;;;;;2.60;0.80;;;28.30;90.90;;;;;;5094185;28;20047;-81
2022/06/21 12:16:17;;;;;;;3.25;0.80;;;27.90;91.10;;;;;;5090326;28;20392;-80
2022/06/21 12:18:53;;;;;;;3.10;0.70;;;27.70;91.50;;;;;;5093461;28;20040;-81
2022/06/21 12:21:30;;;;;;;2.67;0.57;;;27.70;91.10;;;;;;5068701;28;20067;-80
2022/06/21 12:24:04;;;;;;;4.25;0.70;;;27.90;91.20;;;;;;5095392;28;20028;-80
2022/06/21 12:26:32;;;;;;;1.88;0.70;;;27.90;91.00;;;;;;5087247;28;20032;-80
2022/06/21 12:28:59;;;;;;;3.15;0.98;;;28.40;91.90;;;;;;5096244;28;20052;-80
2022/06/21 12:31:31;;;;;;;2.35;0.60;;;28.70;91.60;;;;;;5079507;28;20160;-80
2022/06/21 12:34:11;;;;;;;1.23;0.40;;;28.80;91.30;;;;;;5097375;28;20051;-80
2022/06/21 12:36:51;;;;;;;2.35;0.75;;;29.00;90.90;;;;;;5089211;28;20044;-80
2022/06/21 12:40:02;;;;;;;2.75;0.70;;;28.90;90.40;;;;;;5093620;28;20048;-80
2022/06/21 12:42:54;;;;;;;3.15;0.75;;;29.20;91.80;;;;;;5057846;28;20058;-80
2022/06/21 12:45:33;;;;;;;2.38;0.73;;;29.30;90.90;;;;;;5070450;28;20047;-80
2022/06/21 12:48:17;;;;;;;1.67;0.50;;;29.30;91.00;;;;;;5095569;28;20032;-80
2022/06/21 12:51:29;;;;;;;3.65;0.80;;;29.30;90.90;;;;;;5081027;28;20400;-80
2022/06/21 12:54:01;;;;;;;2.10;0.57;;;29.10;90.60;;;;;;5041801;28;20040;-81
2022/06/21 12:56:58;;;;;;;3.88;1.00;;;28.80;90.70;;;;;;5093000;28;20067;-80
2022/06/21 12:59:37;;;;;;;2.83;0.50;;;28.70;90.60;;;;;;5095442;28;20126;-79
2022/06/21 13:02:30;;;;;;;2.20;0.65;;;28.80;91.30;;;;;;5076105;28;20389;-80
2022/06/21 13:05:11;;;;;;;2.22;0.47;;;29.00;90.40;;;;;;5096238;28;20119;-79
2022/06/21 13:07:55;;;;;;;2.35;0.70;;;29.00;91.30;;;;;;5092815;28;20047;-81
2022/06/21 13:10:51;;;;;;;2.80;0.60;;;29.40;90.50;;;;;;5090183;28;20036;-80
2022/06/21 13:13:32;;;;;;;2.58;0.70;;;29.50;89.70;;;;;;5105204;28;20066;-80
2022/06/21 13:16:10;;;;;;;1.90;0.50;;;29.80;90.50;;;;;;5090855;28;20047;-80
2022/06/21 13:19:06;;;;;;;3.63;0.88;;;29.90;90.20;;;;;;5092195;28;20564;-80
2022/06/21 13:22:01;;;;;;;2.15;0.57;;;29.90;91.40;;;;;;5089191;28;20028;-80
2022/06/21 13:24:45;;;;;;;2.30;0.77;;;29.70;90.40;;;;;;5094622;28;20040;-79
2022/06/21 13:27:39;;;;;;;2.13;0.50;;;29.70;90.00;;;;;;5076949;28;20036;-80
2022/06/21 13:30:18;;;;;;;3.40;0.70;;;29.40;88.50;;;;;;5078080;28;20043;-80
2022/06/21 13:32:49;;;;;;;4.90;0.65;;;28.90;89.50;;;;;;5096088;28;20499;-80
2022/06/21 13:35:54;;;;;;;3.80;1.35;;;29.30;87.90;;;;;;5094551;28;20093;-80
2022/06/21 13:38:38;;;;;;;1.75;0.85;;;29.30;89.20;;;;;;5095910;28;20107;-80
2022/06/21 13:44:49;;;;;;;2.55;0.82;;;28.60;88.20;;;;;;5087073;28;20043;-79
2022/06/21 13:47:54;;;;;;;2.55;0.65;;;28.80;90.20;;;;;;5125002;27;20050;-80
2022/06/21 13:50:32;;;;;;;1.80;0.60;;;28.80;88.80;;;;;;5095656;28;20411;-80
2022/06/21 13:53:21;;;;;;;4.25;0.80;;;28.60;90.90;;;;;;5096111;28;20071;-80
2022/06/21 13:55:57;;;;;;;1.85;0.70;;;28.50;90.60;;;;;;5094152;28;20031;-80
2022/06/21 13:58:39;;;;;;;4.18;0.98;;;28.50;90.40;;;;;;5096471;28;20066;-79
2022/06/21 14:01:17;;;;;;;2.92;1.10;;;28.50;90.30;;;;;;5078657;28;20063;-80
2022/06/21 14:04:11;;;;;;;4.55;1.15;;;28.10;90.60;;;;;;5095433;28;20028;-81
2022/06/21 14:06:50;;;;;;;3.55;0.95;;;28.00;90.80;;;;;;5091407;28;20042;-81
2022/06/21 14:09:44;;;;;;;4.13;1.10;;;27.80;91.00;;;;;;5087200;28;20352;-79
2022/06/21 14:12:34;;;;;;;3.20;1.08;;;27.60;90.90;;;;;;5092981;28;20390;-80
2022/06/21 14:15:13;;;;;;;2.15;0.90;;;27.70;91.00;;;;;;5097141;28;20491;-80